Aviation Digital Data Service (ADDS)

Output produced by METARs form (1932 UTC 23 June 2018)
found at http://aviationweather.gov/adds/metars/
 
KLBX 231720Z 2318/2418 18015G22KT P6SM SCT035 
     FM240100 17012KT P6SM SCT025 
     FM241100 17010KT P6SM BKN020 
     FM241500 18016G22KT P6SM SCT025 SCT035